sensor_id;sensor_type;location;lat;lon;timestamp;pressure;altitude;pressure_sealevel;temperature;humidity
31239;BME280;17871;31.584;74.450;2023-04-01T00:01:27;98219.72;;;20.43;100.00
31239;BME280;17871;31.584;74.450;2023-04-01T00:03:56;98219.91;;;20.38;100.00
31239;BME280;17871;31.584;74.450;2023-04-01T00:06:25;98222.50;;;20.38;100.00
31239;BME280;17871;31.584;74.450;2023-04-01T00:08:54;98221.56;;;20.39;100.00
31239;BME280;17871;31.584;74.450;2023-04-01T00:11:23;98226.63;;;20.44;100.00
31239;BME280;17871;31.584;74.450;2023-04-01T00:13:53;98235.47;;;20.38;100.00
31239;BME280;17871;31.584;74.450;2023-04-01T00:16:22;98233.59;;;20.42;100.00
31239;BME280;17871;31.584;74.450;2023-04-01T00:18:51;98231.06;;;20.40;100.00
31239;BME280;17871;31.584;74.450;2023-04-01T00:21:21;98246.66;;;20.40;100.00
31239;BME280;17871;31.584;74.450;2023-04-01T00:23:51;98240.81;;;20.34;100.00
31239;BME280;17871;31.584;74.450;2023-04-01T00:26:20;98244.09;;;20.39;100.00
31239;BME280;17871;31.584;74.450;2023-04-01T00:28:50;98236.31;;;20.39;100.00
31239;BME280;17871;31.584;74.450;2023-04-01T00:31:19;98241.50;;;20.39;100.00
31239;BME280;17871;31.584;74.450;2023-04-01T00:33:48;98246.75;;;20.37;100.00
31239;BME280;17871;31.584;74.450;2023-04-01T00:36:20;98243.19;;;20.40;100.00
31239;BME280;17871;31.584;74.450;2023-04-01T00:38:50;98244.94;;;20.39;100.00
31239;BME280;17871;31.584;74.450;2023-04-01T00:41:20;98246.66;;;20.40;100.00
31239;BME280;17871;31.584;74.450;2023-04-01T00:43:50;98250.19;;;20.38;100.00
31239;BME280;17871;31.584;74.450;2023-04-01T00:46:19;98261.72;;;20.29;100.00
31239;BME280;17871;31.584;74.450;2023-04-01T00:48:51;98266.50;;;20.41;100.00
31239;BME280;17871;31.584;74.450;2023-04-01T00:51:26;98263.72;;;20.47;100.00
31239;BME280;17871;31.584;74.450;2023-04-01T00:53:59;98261.44;;;20.38;100.00
31239;BME280;17871;31.584;74.450;2023-04-01T00:56:38;98269.75;;;20.48;100.00
31239;BME280;17871;31.584;74.450;2023-04-01T00:59:14;98273.25;;;20.47;100.00
31239;BME280;17871;31.584;74.450;2023-04-01T01:01:45;98272.81;;;20.34;100.00
31239;BME280;17871;31.584;74.450;2023-04-01T01:04:29;98275.97;;;20.42;100.00
31239;BME280;17871;31.584;74.450;2023-04-01T01:07:27;98270.56;;;20.48;100.00
31239;BME280;17871;31.584;74.450;2023-04-01T01:12:40;98277.66;;;20.45;100.00
31239;BME280;17871;31.584;74.450;2023-04-01T01:15:36;98274.31;;;20.41;100.00
31239;BME280;17871;31.584;74.450;2023-04-01T01:18:14;98284.88;;;20.35;100.00
31239;BME280;17871;31.584;74.450;2023-04-01T01:23:41;98289.78;;;20.44;100.00
31239;BME280;17871;31.584;74.450;2023-04-01T01:26:39;98286.16;;;20.48;100.00
31239;BME280;17871;31.584;74.450;2023-04-01T01:29:29;98286.25;;;20.45;100.00
31239;BME280;17871;31.584;74.450;2023-04-01T01:32:13;98297.28;;;20.27;100.00
31239;BME280;17871;31.584;74.450;2023-04-01T01:37:24;98298.66;;;20.37;100.00
31239;BME280;17871;31.584;74.450;2023-04-01T01:40:04;98306.38;;;20.39;100.00
31239;BME280;17871;31.584;74.450;2023-04-01T01:42:38;98303.69;;;20.42;100.00
31239;BME280;17871;31.584;74.450;2023-04-01T01:45:10;98308.56;;;20.25;100.00
31239;BME280;17871;31.584;74.450;2023-04-01T01:47:40;98310.63;;;20.41;100.00
31239;BME280;17871;31.584;74.450;2023-04-01T01:50:12;98310.53;;;20.44;100.00
31239;BME280;17871;31.584;74.450;2023-04-01T01:52:41;98302.75;;;20.44;100.00
31239;BME280;17871;31.584;74.450;2023-04-01T01:55:29;98307.63;;;20.53;100.00
31239;BME280;17871;31.584;74.450;2023-04-01T01:58:10;98313.56;;;20.57;100.00
31239;BME280;17871;31.584;74.450;2023-04-01T02:00:45;98319.81;;;20.51;100.00
31239;BME280;17871;31.584;74.450;2023-04-01T02:03:17;98329.50;;;20.46;100.00
31239;BME280;17871;31.584;74.450;2023-04-01T02:05:51;98328.81;;;20.41;100.00
31239;BME280;17871;31.584;74.450;2023-04-01T02:08:30;98328.06;;;20.62;100.00
31239;BME280;17871;31.584;74.450;2023-04-01T02:11:12;98332.41;;;20.62;100.00
31239;BME280;17871;31.584;74.450;2023-04-01T02:13:50;98339.28;;;20.64;100.00
31239;BME280;17871;31.584;74.450;2023-04-01T02:19:22;98341.06;;;20.62;100.00
31239;BME280;17871;31.584;74.450;2023-04-01T02:21:57;98345.94;;;20.71;100.00
31239;BME280;17871;31.584;74.450;2023-04-01T02:24:30;98341.06;;;20.62;100.00
31239;BME280;17871;31.584;74.450;2023-04-01T02:27:00;98346.84;;;20.70;100.00
31239;BME280;17871;31.584;74.450;2023-04-01T02:29:30;98357.47;;;20.63;100.00
31239;BME280;17871;31.584;74.450;2023-04-01T02:32:00;98358.34;;;20.63;100.00
31239;BME280;17871;31.584;74.450;2023-04-01T02:34:29;98355.44;;;20.73;100.00
31239;BME280;17871;31.584;74.450;2023-04-01T02:36:59;98361.44;;;20.75;100.00
31239;BME280;17871;31.584;74.450;2023-04-01T02:39:28;98357.03;;;20.77;100.00
31239;BME280;17871;31.584;74.450;2023-04-01T02:41:57;98360.19;;;20.85;100.00
31239;BME280;17871;31.584;74.450;2023-04-01T02:44:26;98368.53;;;20.94;100.00
31239;BME280;17871;31.584;74.450;2023-04-01T02:46:55;98365.97;;;20.93;100.00
31239;BME280;17871;31.584;74.450;2023-04-01T02:49:24;98365.22;;;20.89;100.00
31239;BME280;17871;31.584;74.450;2023-04-01T02:51:53;98367.34;;;21.03;100.00
31239;BME280;17871;31.584;74.450;2023-04-01T02:54:22;98369.97;;;21.03;100.00
31239;BME280;17871;31.584;74.450;2023-04-01T02:56:51;98365.09;;;20.94;100.00
31239;BME280;17871;31.584;74.450;2023-04-01T02:59:20;98375.19;;;21.01;100.00
31239;BME280;17871;31.584;74.450;2023-04-01T03:01:55;98368.13;;;21.05;100.00
31239;BME280;17871;31.584;74.450;2023-04-01T03:04:23;98376.44;;;21.16;100.00
31239;BME280;17871;31.584;74.450;2023-04-01T03:06:52;98375.09;;;21.29;100.00
31239;BME280;17871;31.584;74.450;2023-04-01T03:09:21;98376.59;;;21.36;100.00
31239;BME280;17871;31.584;74.450;2023-04-01T03:11:50;98386.25;;;21.33;100.00
31239;BME280;17871;31.584;74.450;2023-04-01T03:14:19;98380.53;;;21.46;100.00
31239;BME280;17871;31.584;74.450;2023-04-01T03:16:48;98381.22;;;21.51;100.00
31239;BME280;17871;31.584;74.450;2023-04-01T03:19:20;98383.41;;;21.62;100.00
31239;BME280;17871;31.584;74.450;2023-04-01T03:21:48;98387.00;;;21.81;100.00
31239;BME280;17871;31.584;74.450;2023-04-01T03:24:17;98388.72;;;21.82;99.72
31239;BME280;17871;31.584;74.450;2023-04-01T03:26:47;98398.41;;;21.55;100.00
31239;BME280;17871;31.584;74.450;2023-04-01T03:29:18;98394.91;;;21.80;100.00
31239;BME280;17871;31.584;74.450;2023-04-01T03:31:47;98395.16;;;21.72;100.00
31239;BME280;17871;31.584;74.450;2023-04-01T03:34:16;98393.56;;;21.93;100.00
31239;BME280;17871;31.584;74.450;2023-04-01T03:36:45;98393.72;;;21.87;100.00
31239;BME280;17871;31.584;74.450;2023-04-01T03:39:14;98397.19;;;21.87;100.00
31239;BME280;17871;31.584;74.450;2023-04-01T03:41:47;98395.56;;;21.85;100.00
31239;BME280;17871;31.584;74.450;2023-04-01T03:44:15;98399.75;;;21.89;100.00
31239;BME280;17871;31.584;74.450;2023-04-01T03:46:48;98398.28;;;22.05;100.00
31239;BME280;17871;31.584;74.450;2023-04-01T03:49:17;98403.72;;;21.99;100.00
31239;BME280;17871;31.584;74.450;2023-04-01T03:51:46;98400.44;;;21.94;100.00
31239;BME280;17871;31.584;74.450;2023-04-01T03:54:15;98407.22;;;21.98;100.00
31239;BME280;17871;31.584;74.450;2023-04-01T03:56:46;98413.63;;;21.89;100.00
31239;BME280;17871;31.584;74.450;2023-04-01T03:59:15;98423.69;;;21.98;100.00
31239;BME280;17871;31.584;74.450;2023-04-01T04:01:46;98420.91;;;21.80;100.00
31239;BME280;17871;31.584;74.450;2023-04-01T04:04:16;98423.31;;;21.84;100.00
31239;BME280;17871;31.584;74.450;2023-04-01T04:06:46;98429.59;;;21.79;100.00
31239;BME280;17871;31.584;74.450;2023-04-01T04:09:16;98428.91;;;21.73;100.00
31239;BME280;17871;31.584;74.450;2023-04-01T04:11:45;98431.34;;;21.78;100.00
31239;BME280;17871;31.584;74.450;2023-04-01T04:14:13;98432.69;;;21.90;99.84
31239;BME280;17871;31.584;74.450;2023-04-01T04:16:44;98435.72;;;21.78;100.00
31239;BME280;17871;31.584;74.450;2023-04-01T04:19:14;98437.06;;;21.89;100.00
31239;BME280;17871;31.584;74.450;2023-04-01T04:21:43;98436.63;;;22.00;100.00
31239;BME280;17871;31.584;74.450;2023-04-01T04:24:13;98451.91;;;21.86;100.00
31239;BME280;17871;31.584;74.450;2023-04-01T04:27:00;98453.56;;;21.87;99.47
31239;BME280;17871;31.584;74.450;2023-04-01T04:29:29;98447.47;;;21.88;100.00
31239;BME280;17871;31.584;74.450;2023-04-01T04:32:00;98462.75;;;22.20;98.38
31239;BME280;17871;31.584;74.450;2023-04-01T04:34:29;98457.50;;;22.43;97.77
31239;BME280;17871;31.584;74.450;2023-04-01T04:36:58;98460.09;;;22.43;97.62
31239;BME280;17871;31.584;74.450;2023-04-01T04:39:31;98461.84;;;22.43;96.63
31239;BME280;17871;31.584;74.450;2023-04-01T04:42:01;98459.06;;;22.47;98.43
31239;BME280;17871;31.584;74.450;2023-04-01T04:44:29;98461.13;;;22.61;97.93
31239;BME280;17871;31.584;74.450;2023-04-01T04:47:01;98463.56;;;22.65;97.76
31239;BME280;17871;31.584;74.450;2023-04-01T04:49:30;98466.53;;;22.78;98.37
31239;BME280;17871;31.584;74.450;2023-04-01T04:52:04;98467.56;;;22.74;96.81
31239;BME280;17871;31.584;74.450;2023-04-01T04:54:33;98464.25;;;22.70;95.88
31239;BME280;17871;31.584;74.450;2023-04-01T04:57:04;98466.88;;;22.91;97.81
31239;BME280;17871;31.584;74.450;2023-04-01T04:59:40;98464.72;;;22.58;94.09
31239;BME280;17871;31.584;74.450;2023-04-01T05:02:16;98474.28;;;22.80;96.04
31239;BME280;17871;31.584;74.450;2023-04-01T05:04:45;98471.56;;;22.83;95.06
31239;BME280;17871;31.584;74.450;2023-04-01T05:07:14;98481.31;;;22.78;94.84
31239;BME280;17871;31.584;74.450;2023-04-01T05:09:43;98478.63;;;23.01;94.75
31239;BME280;17871;31.584;74.450;2023-04-01T05:12:14;98479.09;;;22.89;95.12
31239;BME280;17871;31.584;74.450;2023-04-01T05:15:04;98476.63;;;22.86;93.86
31239;BME280;17871;31.584;74.450;2023-04-01T05:17:34;98470.81;;;23.01;92.75
31239;BME280;17871;31.584;74.450;2023-04-01T05:20:04;98478.91;;;23.15;92.50
31239;BME280;17871;31.584;74.450;2023-04-01T05:22:33;98481.16;;;23.44;92.35
31239;BME280;17871;31.584;74.450;2023-04-01T05:25:02;98477.25;;;23.33;89.58
31239;BME280;17871;31.584;74.450;2023-04-01T05:27:31;98471.50;;;23.46;92.09
31239;BME280;17871;31.584;74.450;2023-04-01T05:30:00;98473.66;;;23.35;89.89
31239;BME280;17871;31.584;74.450;2023-04-01T05:32:47;98471.16;;;23.54;90.69
31239;BME280;17871;31.584;74.450;2023-04-01T05:35:17;98472.25;;;23.48;89.56
31239;BME280;17871;31.584;74.450;2023-04-01T05:37:46;98466.44;;;23.62;90.42
31239;BME280;17871;31.584;74.450;2023-04-01T05:40:15;98466.41;;;23.43;89.87
31239;BME280;17871;31.584;74.450;2023-04-01T05:42:44;98461.31;;;23.60;88.75
31239;BME280;17871;31.584;74.450;2023-04-01T05:45:14;98458.66;;;23.99;89.78
31239;BME280;17871;31.584;74.450;2023-04-01T05:48:04;98463.91;;;24.18;88.77
31239;BME280;17871;31.584;74.450;2023-04-01T05:50:40;98459.50;;;24.37;88.78
31239;BME280;17871;31.584;74.450;2023-04-01T05:53:11;98462.00;;;24.40;87.44
31239;BME280;17871;31.584;74.450;2023-04-01T05:55:42;98452.00;;;24.48;87.10
31239;BME280;17871;31.584;74.450;2023-04-01T05:58:12;98457.78;;;24.55;86.87
31239;BME280;17871;31.584;74.450;2023-04-01T06:00:45;98454.72;;;24.28;86.05
31239;BME280;17871;31.584;74.450;2023-04-01T06:03:16;98459.38;;;24.76;86.89
31239;BME280;17871;31.584;74.450;2023-04-01T06:05:46;98452.72;;;24.88;85.24
31239;BME280;17871;31.584;74.450;2023-04-01T06:08:18;98457.88;;;24.70;85.27
31239;BME280;17871;31.584;74.450;2023-04-01T06:11:16;98450.31;;;25.00;84.30
31239;BME280;17871;31.584;74.450;2023-04-01T06:19:47;98447.78;;;24.46;84.92
31239;BME280;17871;31.584;74.450;2023-04-01T06:25:18;98439.91;;;23.32;90.73
31239;BME280;17871;31.584;74.450;2023-04-01T06:36:02;98437.28;;;22.28;94.92
31239;BME280;17871;31.584;74.450;2023-04-01T06:38:41;98434.69;;;22.71;94.78
31239;BME280;17871;31.584;74.450;2023-04-01T06:51:47;98430.50;;;21.78;97.18
31239;BME280;17871;31.584;74.450;2023-04-01T06:54:42;98441.66;;;21.81;97.36
31239;BME280;17871;31.584;74.450;2023-04-01T06:57:47;98423.91;;;22.15;94.52
31239;BME280;17871;31.584;74.450;2023-04-01T07:00:27;98426.06;;;22.04;95.30
31239;BME280;17871;31.584;74.450;2023-04-01T07:05:45;98423.03;;;22.15;94.10
31239;BME280;17871;31.584;74.450;2023-04-01T07:08:25;98427.34;;;22.16;94.74
31239;BME280;17871;31.584;74.450;2023-04-01T07:11:05;98425.25;;;21.79;94.95
31239;BME280;17871;31.584;74.450;2023-04-01T07:16:53;98408.44;;;22.11;94.95
31239;BME280;17871;31.584;74.450;2023-04-01T07:19:31;98408.72;;;22.03;95.13
31239;BME280;17871;31.584;74.450;2023-04-01T07:22:23;98418.78;;;22.56;94.33
31239;BME280;17871;31.584;74.450;2023-04-01T07:27:43;98405.66;;;22.37;92.09
31239;BME280;17871;31.584;74.450;2023-04-01T07:30:22;98407.19;;;21.99;94.65
31239;BME280;17871;31.584;74.450;2023-04-01T07:49:21;98396.81;;;22.41;93.44
31239;BME280;17871;31.584;74.450;2023-04-01T07:52:08;98380.50;;;22.16;94.11
31239;BME280;17871;31.584;74.450;2023-04-01T07:54:57;98382.47;;;22.31;94.02
31239;BME280;17871;31.584;74.450;2023-04-01T08:00:24;98379.16;;;22.28;93.61
31239;BME280;17871;31.584;74.450;2023-04-01T08:07:30;98365.69;;;22.16;96.88
31239;BME280;17871;31.584;74.450;2023-04-01T08:15:45;98354.00;;;22.48;96.77
31239;BME280;17871;31.584;74.450;2023-04-01T08:21:43;98359.34;;;23.06;94.17
31239;BME280;17871;31.584;74.450;2023-04-01T08:26:57;98352.66;;;23.39;93.90
31239;BME280;17871;31.584;74.450;2023-04-01T08:29:40;98344.47;;;23.28;93.29
31239;BME280;17871;31.584;74.450;2023-04-01T08:32:20;98354.13;;;23.26;92.37
31239;BME280;17871;31.584;74.450;2023-04-01T08:35:24;98348.00;;;22.88;91.24
31239;BME280;17871;31.584;74.450;2023-04-01T08:37:51;98346.75;;;23.15;88.38
31239;BME280;17871;31.584;74.450;2023-04-01T08:40:58;98340.03;;;23.30;87.81
31239;BME280;17871;31.584;74.450;2023-04-01T08:53:06;98328.53;;;24.62;87.00
31239;BME280;17871;31.584;74.450;2023-04-01T09:04:49;98312.69;;;24.48;83.66
31239;BME280;17871;31.584;74.450;2023-04-01T09:11:00;98288.84;;;24.88;83.53
31239;BME280;17871;31.584;74.450;2023-04-01T09:22:25;98273.78;;;24.76;80.13
31239;BME280;17871;31.584;74.450;2023-04-01T09:28:25;98268.09;;;24.85;79.96
31239;BME280;17871;31.584;74.450;2023-04-01T09:36:46;98260.44;;;24.65;79.71
31239;BME280;17871;31.584;74.450;2023-04-01T09:39:37;98260.75;;;24.59;80.68
31239;BME280;17871;31.584;74.450;2023-04-01T09:45:52;98248.59;;;25.08;79.55
31239;BME280;17871;31.584;74.450;2023-04-01T09:53:56;98243.13;;;25.28;79.07
31239;BME280;17871;31.584;74.450;2023-04-01T10:12:27;98213.00;;;25.21;78.57
31239;BME280;17871;31.584;74.450;2023-04-01T10:29:36;98192.81;;;25.07;77.55
31239;BME280;17871;31.584;74.450;2023-04-01T10:35:24;98182.88;;;25.14;78.11
31239;BME280;17871;31.584;74.450;2023-04-01T10:44:21;98179.03;;;24.40;80.31
31239;BME280;17871;31.584;74.450;2023-04-01T10:56:00;98174.41;;;24.10;80.32
31239;BME280;17871;31.584;74.450;2023-04-01T11:08:48;98174.53;;;24.07;79.87
31239;BME280;17871;31.584;74.450;2023-04-01T11:23:58;98183.09;;;23.94;79.59
31239;BME280;17871;31.584;74.450;2023-04-01T11:35:28;98191.66;;;23.78;79.57
31239;BME280;17871;31.584;74.450;2023-04-01T11:38:14;98192.06;;;23.71;80.42
31239;BME280;17871;31.584;74.450;2023-04-01T11:44:20;98180.31;;;23.97;81.08
31239;BME280;17871;31.584;74.450;2023-04-01T11:47:36;98178.06;;;23.72;80.88
31239;BME280;17871;31.584;74.450;2023-04-01T11:53:14;98187.50;;;23.74;81.36
31239;BME280;17871;31.584;74.450;2023-04-01T11:59:01;98188.16;;;23.80;79.44
31239;BME280;17871;31.584;74.450;2023-04-01T12:07:27;98194.09;;;23.47;79.24
31239;BME280;17871;31.584;74.450;2023-04-01T12:10:33;98186.88;;;23.34;79.35
31239;BME280;17871;31.584;74.450;2023-04-01T12:13:29;98190.13;;;23.20;79.40
31239;BME280;17871;31.584;74.450;2023-04-01T12:21:32;98196.41;;;23.16;80.01
31239;BME280;17871;31.584;74.450;2023-04-01T12:27:13;98198.88;;;22.82;80.39
31239;BME280;17871;31.584;74.450;2023-04-01T12:42:06;98186.75;;;22.81;80.79
31239;BME280;17871;31.584;74.450;2023-04-01T12:47:40;98191.06;;;22.61;81.19
31239;BME280;17871;31.584;74.450;2023-04-01T12:55:42;98206.72;;;22.41;81.32
31239;BME280;17871;31.584;74.450;2023-04-01T12:58:22;98210.09;;;22.43;81.82
31239;BME280;17871;31.584;74.450;2023-04-01T13:01:19;98209.47;;;22.38;81.40
31239;BME280;17871;31.584;74.450;2023-04-01T13:13:04;98228.84;;;22.11;81.66
31239;BME280;17871;31.584;74.450;2023-04-01T13:21:45;98226.13;;;22.14;83.09
31239;BME280;17871;31.584;74.450;2023-04-01T13:27:37;98221.03;;;22.11;82.97
31239;BME280;17871;31.584;74.450;2023-04-01T13:30:33;98220.63;;;22.00;83.06
31239;BME280;17871;31.584;74.450;2023-04-01T13:33:27;98221.03;;;22.11;83.64
31239;BME280;17871;31.584;74.450;2023-04-01T13:36:28;98229.75;;;22.10;83.45
31239;BME280;17871;31.584;74.450;2023-04-01T13:39:13;98232.81;;;21.99;83.31
31239;BME280;17871;31.584;74.450;2023-04-01T13:44:39;98238.38;;;21.90;85.12
31239;BME280;17871;31.584;74.450;2023-04-01T13:53:12;98230.63;;;21.89;84.28
31239;BME280;17871;31.584;74.450;2023-04-01T13:55:53;98235.94;;;21.86;84.87
31239;BME280;17871;31.584;74.450;2023-04-01T14:04:03;98235.53;;;21.74;85.83
31239;BME280;17871;31.584;74.450;2023-04-01T14:09:37;98236.81;;;21.64;85.91
31239;BME280;17871;31.584;74.450;2023-04-01T14:12:24;98245.22;;;21.49;87.14
31239;BME280;17871;31.584;74.450;2023-04-01T14:17:46;98246.81;;;21.53;87.75
31239;BME280;17871;31.584;74.450;2023-04-01T14:43:47;98260.50;;;21.35;89.03
31239;BME280;17871;31.584;74.450;2023-04-01T14:54:50;98264.16;;;21.06;88.12
31239;BME280;17871;31.584;74.450;2023-04-01T14:57:29;98264.31;;;21.02;89.36
31239;BME280;17871;31.584;74.450;2023-04-01T15:00:15;98261.97;;;21.19;88.43
31239;BME280;17871;31.584;74.450;2023-04-01T15:02:58;98259.44;;;21.17;89.21
31239;BME280;17871;31.584;74.450;2023-04-01T15:14:31;98266.69;;;21.08;89.05
31239;BME280;17871;31.584;74.450;2023-04-01T15:31:29;98296.41;;;21.01;90.61
31239;BME280;17871;31.584;74.450;2023-04-01T15:37:06;98297.84;;;20.85;90.66
31239;BME280;17871;31.584;74.450;2023-04-01T15:40:06;98296.50;;;20.98;91.03
31239;BME280;17871;31.584;74.450;2023-04-01T15:42:54;98295.09;;;20.89;91.22
31239;BME280;17871;31.584;74.450;2023-04-01T15:45:39;98291.75;;;20.86;90.75
31239;BME280;17871;31.584;74.450;2023-04-01T15:51:09;98302.16;;;20.86;90.57
31239;BME280;17871;31.584;74.450;2023-04-01T15:54:15;98298.88;;;20.81;90.72
31239;BME280;17871;31.584;74.450;2023-04-01T16:00:10;98316.84;;;20.87;91.73
31239;BME280;17871;31.584;74.450;2023-04-01T16:05:51;98330.06;;;20.81;90.88
31239;BME280;17871;31.584;74.450;2023-04-01T16:08:47;98320.50;;;20.81;90.56
31239;BME280;17871;31.584;74.450;2023-04-01T16:11:43;98338.34;;;20.65;90.81
31239;BME280;17871;31.584;74.450;2023-04-01T16:20:24;98338.84;;;20.77;91.48
31239;BME280;17871;31.584;74.450;2023-04-01T16:23:03;98340.94;;;20.65;91.21
31239;BME280;17871;31.584;74.450;2023-04-01T16:25:49;98334.72;;;20.71;92.50
31239;BME280;17871;31.584;74.450;2023-04-01T16:28:34;98342.66;;;20.66;92.64
31239;BME280;17871;31.584;74.450;2023-04-01T16:32:02;98342.75;;;20.63;93.09
31239;BME280;17871;31.584;74.450;2023-04-01T16:34:08;98349.09;;;20.55;92.71
31239;BME280;17871;31.584;74.450;2023-04-01T16:36:52;98344.75;;;20.55;92.36
31239;BME280;17871;31.584;74.450;2023-04-01T16:48:12;98334.00;;;20.41;93.13
31239;BME280;17871;31.584;74.450;2023-04-01T16:50:58;98335.63;;;20.44;93.76
31239;BME280;17871;31.584;74.450;2023-04-01T16:53:43;98342.47;;;20.46;93.68
31239;BME280;17871;31.584;74.450;2023-04-01T16:56:24;98348.56;;;20.45;93.65
31239;BME280;17871;31.584;74.450;2023-04-01T16:59:17;98341.69;;;20.44;93.44
31239;BME280;17871;31.584;74.450;2023-04-01T17:02:02;98345.13;;;20.45;94.23
31239;BME280;17871;31.584;74.450;2023-04-01T17:04:57;98351.47;;;20.36;93.23
31239;BME280;17871;31.584;74.450;2023-04-01T17:31:17;98350.94;;;20.25;93.05
31239;BME280;17871;31.584;74.450;2023-04-01T17:34:09;98358.78;;;20.24;92.89
31239;BME280;17871;31.584;74.450;2023-04-01T17:36:58;98352.72;;;20.23;92.37
31239;BME280;17871;31.584;74.450;2023-04-01T17:39:57;98347.75;;;20.17;92.96
31239;BME280;17871;31.584;74.450;2023-04-01T18:02:05;98354.91;;;20.09;93.55
31239;BME280;17871;31.584;74.450;2023-04-01T18:05:05;98349.72;;;20.09;92.43
31239;BME280;17871;31.584;74.450;2023-04-01T18:13:51;98353.44;;;20.00;93.64
31239;BME280;17871;31.584;74.450;2023-04-01T18:16:38;98355.28;;;19.97;92.55
31239;BME280;17871;31.584;74.450;2023-04-01T18:24:45;98364.06;;;19.93;93.64
31239;BME280;17871;31.584;74.450;2023-04-01T18:27:30;98358.75;;;19.97;93.47
31239;BME280;17871;31.584;74.450;2023-04-01T18:30:26;98352.91;;;19.91;93.48
31239;BME280;17871;31.584;74.450;2023-04-01T18:35:58;98349.44;;;19.90;94.58
31239;BME280;17871;31.584;74.450;2023-04-01T18:38:37;98352.16;;;19.86;95.19
31239;BME280;17871;31.584;74.450;2023-04-01T18:49:54;98354.06;;;19.81;94.62
31239;BME280;17871;31.584;74.450;2023-04-01T18:52:34;98357.75;;;19.74;95.22
31239;BME280;17871;31.584;74.450;2023-04-01T18:57:53;98364.72;;;19.72;95.63
31239;BME280;17871;31.584;74.450;2023-04-01T19:04:09;98367.22;;;19.75;96.37
31239;BME280;17871;31.584;74.450;2023-04-01T19:06:53;98359.63;;;19.68;96.34
31239;BME280;17871;31.584;74.450;2023-04-01T19:26:00;98362.53;;;19.58;96.18
31239;BME280;17871;31.584;74.450;2023-04-01T19:28:55;98365.91;;;19.61;96.72
31239;BME280;17871;31.584;74.450;2023-04-01T19:34:52;98364.34;;;19.56;96.92
31239;BME280;17871;31.584;74.450;2023-04-01T19:38:24;98380.00;;;19.51;96.00
31239;BME280;17871;31.584;74.450;2023-04-01T19:40:32;98373.97;;;19.51;96.26
31239;BME280;17871;31.584;74.450;2023-04-01T19:46:33;98368.84;;;19.49;96.77
31239;BME280;17871;31.584;74.450;2023-04-01T19:49:08;98382.50;;;19.54;98.05
31239;BME280;17871;31.584;74.450;2023-04-01T19:54:52;98387.88;;;19.48;97.24
31239;BME280;17871;31.584;74.450;2023-04-01T19:57:46;98394.00;;;19.46;97.82
31239;BME280;17871;31.584;74.450;2023-04-01T20:00:51;98391.69;;;19.35;97.73
31239;BME280;17871;31.584;74.450;2023-04-01T20:14:51;98393.28;;;19.39;97.68
31239;BME280;17871;31.584;74.450;2023-04-01T20:17:25;98386.63;;;19.31;98.17
31239;BME280;17871;31.584;74.450;2023-04-01T20:25:22;98376.34;;;19.28;97.17
31239;BME280;17871;31.584;74.450;2023-04-01T20:28:43;98380.66;;;19.27;97.96
31239;BME280;17871;31.584;74.450;2023-04-01T20:45:28;98367.56;;;19.02;99.45
31239;BME280;17871;31.584;74.450;2023-04-01T20:48:19;98368.44;;;19.01;100.00
31239;BME280;17871;31.584;74.450;2023-04-01T20:50:57;98367.72;;;18.96;100.00
31239;BME280;17871;31.584;74.450;2023-04-01T21:01:41;98352.72;;;19.07;100.00
31239;BME280;17871;31.584;74.450;2023-04-01T21:09:56;98357.72;;;18.83;100.00
31239;BME280;17871;31.584;74.450;2023-04-01T21:12:48;98351.00;;;18.76;100.00
31239;BME280;17871;31.584;74.450;2023-04-01T21:32:53;98304.47;;;18.40;100.00
31239;BME280;17871;31.584;74.450;2023-04-01T22:12:19;98270.75;;;18.43;100.00
31239;BME280;17871;31.584;74.450;2023-04-01T22:14:39;98272.50;;;18.41;100.00
31239;BME280;17871;31.584;74.450;2023-04-01T22:17:28;98270.69;;;18.45;100.00
31239;BME280;17871;31.584;74.450;2023-04-01T22:20:22;98265.59;;;18.42;100.00
31239;BME280;17871;31.584;74.450;2023-04-01T22:25:38;98256.06;;;18.44;100.00
31239;BME280;17871;31.584;74.450;2023-04-01T22:28:24;98264.66;;;18.44;100.00
31239;BME280;17871;31.584;74.450;2023-04-01T22:30:59;98287.06;;;18.45;100.00
31239;BME280;17871;31.584;74.450;2023-04-01T22:33:51;98278.59;;;18.40;100.00
31239;BME280;17871;31.584;74.450;2023-04-01T22:55:45;98233.09;;;18.32;100.00
31239;BME280;17871;31.584;74.450;2023-04-01T22:58:48;98221.78;;;18.36;100.00
31239;BME280;17871;31.584;74.450;2023-04-01T23:01:24;98228.00;;;18.29;100.00
31239;BME280;17871;31.584;74.450;2023-04-01T23:03:56;98237.31;;;18.34;100.00
31239;BME280;17871;31.584;74.450;2023-04-01T23:06:27;98231.16;;;18.40;100.00
31239;BME280;17871;31.584;74.450;2023-04-01T23:09:11;98235.59;;;18.35;100.00
31239;BME280;17871;31.584;74.450;2023-04-01T23:11:52;98240.91;;;18.30;100.00
31239;BME280;17871;31.584;74.450;2023-04-01T23:35:52;98222.22;;;18.19;100.00
31239;BME280;17871;31.584;74.450;2023-04-01T23:38:25;98225.56;;;18.24;100.00
31239;BME280;17871;31.584;74.450;2023-04-01T23:40:55;98231.53;;;18.26;100.00
31239;BME280;17871;31.584;74.450;2023-04-01T23:43:28;98235.75;;;18.30;100.00
31239;BME280;17871;31.584;74.450;2023-04-01T23:46:01;98239.28;;;18.26;100.00
31239;BME280;17871;31.584;74.450;2023-04-01T23:48:40;98240.22;;;18.24;100.00
31239;BME280;17871;31.584;74.450;2023-04-01T23:54:01;98244.72;;;18.15;100.00
31239;BME280;17871;31.584;74.450;2023-04-01T23:56:49;98249.88;;;18.17;100.00
31239;BME280;17871;31.584;74.450;2023-04-01T23:59:37;98242.84;;;18.22;100.00
